createdAt,value
2022-08-10T00:02:19.508Z,20.48
2022-08-10T00:04:48.124Z,20.49
2022-08-10T00:07:16.771Z,20.46
2022-08-10T00:09:50.606Z,20.44
2022-08-10T00:12:54.327Z,20.39
2022-08-10T00:15:52.583Z,20.44
2022-08-10T00:18:37.785Z,20.46
2022-08-10T00:21:15.250Z,20.47
2022-08-10T00:23:49.995Z,20.45
2022-08-10T00:26:25.142Z,20.46
2022-08-10T00:29:17.340Z,20.46
2022-08-10T00:32:07.489Z,20.44
2022-08-10T00:34:46.005Z,20.41
2022-08-10T00:37:15.971Z,20.41
2022-08-10T00:39:47.115Z,20.39
2022-08-10T00:42:17.785Z,20.45
2022-08-10T00:44:50.221Z,20.42
2022-08-10T00:47:37.209Z,20.38
2022-08-10T00:50:08.745Z,20.36
2022-08-10T00:52:40.685Z,20.33
2022-08-10T00:55:09.985Z,20.31
2022-08-10T00:57:40.315Z,20.28
2022-08-10T01:00:11.903Z,20.25
2022-08-10T01:02:42.369Z,20.16
2022-08-10T01:05:14.683Z,20.14
2022-08-10T01:08:12.120Z,20.15
2022-08-10T01:10:45.621Z,20.12
2022-08-10T01:13:22.791Z,20.09
2022-08-10T01:16:00.345Z,20.14
2022-08-10T01:18:40.123Z,20.12
2022-08-10T01:21:35.603Z,20.12
2022-08-10T01:24:40.680Z,20.05
2022-08-10T01:27:28.220Z,20.04
2022-08-10T01:30:08.390Z,20.02
2022-08-10T01:32:52.420Z,19.98
2022-08-10T01:35:28.490Z,19.96
2022-08-10T01:38:05.090Z,20.00
2022-08-10T01:40:38.511Z,19.97
2022-08-10T01:43:11.320Z,19.99
2022-08-10T01:45:46.963Z,20.01
2022-08-10T01:48:31.336Z,20.01
2022-08-10T01:51:11.143Z,20.03
2022-08-10T01:53:44.580Z,19.97
2022-08-10T01:56:15.910Z,19.87
2022-08-10T01:58:47.959Z,19.79
2022-08-10T02:01:24.678Z,19.83
2022-08-10T02:04:04.381Z,19.78
2022-08-10T02:06:37.134Z,19.81
2022-08-10T02:09:07.784Z,19.83
2022-08-10T02:12:05.572Z,19.81
2022-08-10T02:14:33.362Z,19.81
2022-08-10T02:17:08.119Z,19.80
2022-08-10T02:19:40.605Z,19.81
2022-08-10T02:22:36.973Z,19.77
2022-08-10T02:25:01.691Z,19.77
2022-08-10T02:27:32.399Z,19.73
2022-08-10T02:30:03.130Z,19.71
2022-08-10T02:32:36.395Z,19.74
2022-08-10T02:35:21.861Z,19.71
2022-08-10T02:37:54.810Z,19.67
2022-08-10T02:45:02.315Z,19.67
2022-08-10T02:45:24.537Z,19.66
2022-08-10T02:46:18.201Z,19.71
2022-08-10T02:48:56.121Z,19.60
2022-08-10T02:52:08.078Z,19.60
2022-08-10T02:54:23.630Z,19.60
2022-08-10T02:56:56.550Z,19.54
2022-08-10T02:59:40.024Z,19.58
2022-08-10T03:02:13.710Z,19.54
2022-08-10T03:04:57.040Z,19.58
2022-08-10T03:07:43.376Z,19.46
2022-08-10T03:10:16.741Z,19.45
2022-08-10T03:12:47.448Z,19.48
2022-08-10T03:15:17.360Z,19.48
2022-08-10T03:17:57.729Z,19.47
2022-08-10T03:20:38.215Z,19.47
2022-08-10T03:23:13.414Z,19.47
2022-08-10T03:25:53.111Z,19.42
2022-08-10T03:28:24.907Z,19.36
2022-08-10T03:30:54.516Z,19.34
2022-08-10T03:33:24.494Z,19.35
2022-08-10T03:36:43.168Z,19.37
2022-08-10T03:38:46.367Z,19.35
2022-08-10T03:41:16.925Z,19.38
2022-08-10T03:43:48.241Z,19.38
2022-08-10T03:46:20.514Z,19.36
2022-08-10T03:48:53.645Z,19.40
2022-08-10T03:51:24.826Z,19.38
2022-08-10T03:54:04.188Z,19.32
2022-08-10T03:56:38.848Z,19.24
2022-08-10T03:59:09.649Z,19.16
2022-08-10T04:02:52.387Z,19.13
2022-08-10T04:04:28.049Z,19.11
2022-08-10T04:06:59.587Z,19.21
2022-08-10T04:09:53.054Z,19.19
2022-08-10T04:12:19.304Z,19.12
2022-08-10T04:14:51.098Z,19.12
2022-08-10T04:18:04.447Z,19.15
2022-08-10T04:20:19.671Z,19.12
2022-08-10T04:22:53.712Z,19.11
2022-08-10T04:25:24.382Z,19.08
2022-08-10T04:27:54.064Z,19.08
2022-08-10T04:30:23.247Z,19.06
2022-08-10T04:32:55.764Z,18.96
2022-08-10T04:35:25.764Z,19.00
2022-08-10T04:37:58.484Z,18.98
2022-08-10T04:40:30.252Z,18.97
2022-08-10T04:43:05.812Z,18.99
2022-08-10T04:45:48.833Z,18.98
2022-08-10T04:48:40.982Z,18.96
2022-08-10T04:51:15.315Z,18.93
2022-08-10T04:54:05.025Z,18.88
2022-08-10T04:56:37.382Z,18.90
2022-08-10T04:59:07.312Z,18.94
2022-08-10T05:02:22.356Z,18.92
2022-08-10T05:04:37.746Z,18.89
2022-08-10T05:07:16.733Z,18.85
2022-08-10T05:10:02.311Z,18.70
2022-08-10T05:12:37.668Z,18.63
2022-08-10T05:15:09.661Z,18.58
2022-08-10T05:17:39.105Z,18.64
2022-08-10T05:20:11.364Z,18.57
2022-08-10T05:22:41.426Z,18.60
2022-08-10T05:25:13.907Z,18.56
2022-08-10T05:27:43.305Z,18.53
2022-08-10T05:30:14.856Z,18.56
2022-08-10T05:32:56.754Z,18.54
2022-08-10T05:35:27.575Z,18.53
2022-08-10T05:38:12.414Z,18.50
2022-08-10T05:40:47.869Z,18.54
2022-08-10T05:43:21.570Z,18.55
2022-08-10T05:46:16.948Z,18.57
2022-08-10T05:48:56.088Z,18.56
2022-08-10T05:51:28.148Z,18.53
2022-08-10T05:54:01.789Z,18.51
2022-08-10T05:56:55.678Z,18.50
2022-08-10T06:00:33.005Z,18.55
2022-08-10T06:02:30.767Z,18.61
2022-08-10T06:05:05.828Z,18.60
2022-08-10T06:07:36.641Z,18.56
2022-08-10T06:10:08.363Z,18.55
2022-08-10T06:12:55.334Z,18.57
2022-08-10T06:15:52.121Z,18.56
2022-08-10T06:18:51.994Z,18.60
2022-08-10T06:21:21.665Z,18.62
2022-08-10T06:23:51.745Z,18.60
2022-08-10T06:26:21.792Z,18.65
2022-08-10T06:29:02.904Z,18.64
2022-08-10T06:31:48.321Z,18.73
2022-08-10T06:34:24.164Z,18.87
2022-08-10T06:36:54.584Z,19.07
2022-08-10T06:39:39.839Z,19.19
2022-08-10T06:42:21.571Z,19.28
2022-08-10T06:45:00.955Z,19.39
2022-08-10T06:47:37.535Z,19.44
2022-08-10T06:50:17.479Z,19.59
2022-08-10T06:53:05.254Z,19.70
2022-08-10T06:55:50.104Z,19.83
2022-08-10T06:58:27.864Z,19.97
2022-08-10T07:00:58.811Z,20.08
2022-08-10T07:03:35.495Z,20.20
2022-08-10T07:06:07.446Z,20.30
2022-08-10T07:08:38.189Z,20.40
2022-08-10T07:11:11.988Z,20.48
2022-08-10T07:14:15.251Z,20.59
2022-08-10T07:16:35.075Z,20.69
2022-08-10T07:19:04.984Z,20.80
2022-08-10T07:21:35.106Z,20.85
2022-08-10T07:24:08.540Z,20.94
2022-08-10T07:26:39.670Z,21.02
2022-08-10T07:29:09.284Z,21.09
2022-08-10T07:32:01.974Z,21.20
2022-08-10T07:34:33.508Z,21.26
2022-08-10T07:37:05.447Z,21.30
2022-08-10T07:40:02.799Z,21.35
2022-08-10T07:42:31.253Z,21.44
2022-08-10T07:45:00.525Z,21.49
2022-08-10T07:47:52.322Z,21.57
2022-08-10T07:50:25.887Z,21.69
2022-08-10T07:52:57.250Z,21.76
2022-08-10T07:56:02.012Z,21.82
2022-08-10T07:58:18.574Z,21.91
2022-08-10T08:00:49.871Z,21.93
2022-08-10T08:03:25.183Z,22.00
2022-08-10T08:05:58.421Z,22.02
2022-08-10T08:08:33.819Z,22.05
2022-08-10T08:11:04.574Z,22.03
2022-08-10T08:13:33.913Z,22.05
2022-08-10T08:16:19.960Z,22.04
2022-08-10T08:19:24.032Z,21.98
2022-08-10T08:24:10.567Z,21.87
2022-08-10T08:24:42.273Z,21.84
2022-08-10T08:27:15.412Z,21.79
2022-08-10T08:29:47.230Z,21.75
2022-08-10T08:32:20.985Z,21.81
2022-08-10T08:34:54.974Z,21.79
2022-08-10T08:38:32.720Z,21.76
2022-08-10T08:40:18.215Z,21.85
2022-08-10T08:43:06.864Z,21.78
2022-08-10T08:46:01.821Z,21.80
2022-08-10T08:48:47.442Z,21.78
2022-08-10T08:52:09.483Z,21.81
2022-08-10T08:54:33.105Z,21.91
2022-08-10T08:57:07.460Z,21.93
2022-08-10T08:59:52.720Z,21.94
2022-08-10T09:02:36.204Z,21.97
2022-08-10T09:05:24.730Z,21.95
2022-08-10T09:08:18.081Z,21.98
2022-08-10T09:10:54.295Z,21.90
2022-08-10T09:13:30.962Z,21.89
2022-08-10T09:16:17.819Z,22.03
2022-08-10T09:18:52.855Z,22.03
2022-08-10T09:21:29.733Z,21.99
2022-08-10T09:24:07.209Z,22.02
2022-08-10T09:26:44.969Z,22.02
2022-08-10T09:29:19.101Z,22.04
2022-08-10T09:33:05.852Z,22.06
2022-08-10T09:36:26.781Z,22.13
2022-08-10T09:38:02.811Z,22.16
2022-08-10T09:41:00.641Z,22.12
2022-08-10T09:43:42.240Z,22.19
2022-08-10T09:46:22.250Z,22.21
2022-08-10T09:49:07.581Z,22.21
2022-08-10T09:51:47.584Z,22.19
2022-08-10T09:54:49.171Z,22.21
2022-08-10T09:57:44.769Z,22.20
2022-08-10T10:00:17.782Z,22.24
2022-08-10T10:03:01.184Z,22.23
2022-08-10T10:05:50.512Z,22.27
2022-08-10T10:08:29.820Z,22.21
2022-08-10T10:11:05.710Z,22.27
2022-08-10T10:14:03.875Z,22.31
2022-08-10T10:16:54.071Z,22.38
2022-08-10T10:19:46.021Z,22.34
2022-08-10T10:22:39.670Z,22.34
2022-08-10T10:25:19.868Z,22.39
2022-08-10T10:27:59.820Z,22.40
2022-08-10T10:30:37.746Z,22.40
2022-08-10T10:33:15.060Z,22.40
2022-08-10T10:35:52.420Z,22.41
2022-08-10T10:38:24.650Z,22.34
2022-08-10T10:41:01.849Z,22.41
2022-08-10T10:43:43.840Z,22.42
2022-08-10T10:46:26.184Z,22.39
2022-08-10T10:49:05.111Z,22.44
2022-08-10T10:51:39.872Z,22.41
2022-08-10T10:54:13.301Z,22.41
2022-08-10T10:56:53.061Z,22.37
2022-08-10T10:59:53.801Z,22.40
2022-08-10T11:02:36.821Z,22.40
2022-08-10T11:05:16.720Z,22.42
2022-08-10T11:07:55.613Z,22.48
2022-08-10T11:10:32.997Z,22.57
2022-08-10T11:14:24.407Z,22.48
2022-08-10T11:16:15.290Z,22.39
2022-08-10T11:19:12.302Z,22.43
2022-08-10T11:21:51.360Z,22.44
2022-08-10T11:24:48.017Z,22.43
2022-08-10T11:27:26.711Z,22.49
2022-08-10T11:30:04.190Z,22.44
2022-08-10T11:32:57.220Z,22.43
2022-08-10T11:35:37.910Z,22.48
2022-08-10T11:38:32.817Z,22.53
2022-08-10T11:42:06.148Z,22.65
2022-08-10T11:44:05.009Z,22.73
2022-08-10T11:46:37.910Z,22.79
2022-08-10T11:49:14.050Z,22.82
2022-08-10T11:51:49.721Z,22.84
2022-08-10T11:54:31.832Z,22.88
2022-08-10T11:57:02.762Z,22.91
2022-08-10T11:59:58.238Z,22.93
2022-08-10T12:02:33.017Z,22.98
2022-08-10T12:05:08.699Z,23.01
2022-08-10T12:10:02.098Z,23.03
2022-08-10T12:10:34.447Z,23.06
2022-08-10T12:13:11.821Z,23.01
2022-08-10T12:15:54.800Z,22.99
2022-08-10T12:18:32.130Z,23.09
2022-08-10T12:21:04.550Z,23.15
2022-08-10T12:23:42.139Z,23.10
2022-08-10T12:26:16.339Z,22.97
2022-08-10T12:28:52.187Z,22.87
2022-08-10T12:31:26.610Z,22.82
2022-08-10T12:34:08.760Z,22.81
2022-08-10T12:36:42.847Z,22.78
2022-08-10T12:39:18.322Z,22.76
2022-08-10T12:41:55.391Z,22.78
2022-08-10T12:44:41.230Z,22.75
2022-08-10T12:47:21.144Z,22.77
2022-08-10T12:50:29.939Z,22.77
2022-08-10T12:52:49.980Z,22.78
2022-08-10T12:55:24.139Z,22.78
2022-08-10T12:57:56.310Z,22.80
2022-08-10T13:00:33.979Z,22.78
2022-08-10T13:03:05.171Z,22.81
2022-08-10T13:06:02.111Z,22.80
2022-08-10T13:08:43.909Z,22.80
2022-08-10T13:12:34.215Z,22.84
2022-08-10T13:14:11.740Z,22.85
2022-08-10T13:16:43.031Z,22.83
2022-08-10T13:19:16.999Z,22.90
2022-08-10T13:21:46.311Z,23.01
2022-08-10T13:24:17.755Z,23.10
2022-08-10T13:27:26.134Z,23.01
2022-08-10T13:29:50.650Z,22.97
2022-08-10T13:32:30.580Z,22.99
2022-08-10T13:35:04.619Z,22.97
2022-08-10T13:37:35.729Z,23.06
2022-08-10T13:40:07.174Z,23.32
2022-08-10T13:42:39.676Z,23.29
2022-08-10T13:45:11.829Z,23.33
2022-08-10T13:47:48.426Z,23.36
2022-08-10T13:50:33.472Z,23.36
2022-08-10T13:53:26.137Z,23.38
2022-08-10T13:55:57.522Z,23.40
2022-08-10T13:58:31.218Z,23.42
2022-08-10T14:01:01.848Z,23.38
2022-08-10T14:03:39.861Z,23.41
2022-08-10T14:06:12.068Z,23.43
2022-08-10T14:08:42.745Z,23.53
2022-08-10T14:11:16.057Z,23.51
2022-08-10T14:13:54.147Z,23.51
2022-08-10T14:16:23.154Z,23.50
2022-08-10T14:18:54.828Z,23.64
2022-08-10T14:21:26.015Z,23.62
2022-08-10T14:23:55.872Z,23.69
2022-08-10T14:26:27.463Z,23.71
2022-08-10T14:28:59.700Z,23.63
2022-08-10T14:31:33.918Z,23.70
2022-08-10T14:34:05.521Z,23.67
2022-08-10T14:36:41.902Z,23.65
2022-08-10T14:39:18.695Z,23.69
2022-08-10T14:42:01.713Z,23.77
2022-08-10T14:44:49.360Z,23.78
2022-08-10T14:47:53.768Z,24.00
2022-08-10T14:50:31.626Z,23.92
2022-08-10T14:53:09.628Z,23.79
2022-08-10T14:55:59.409Z,23.85
2022-08-10T14:58:32.381Z,23.79
2022-08-10T15:01:04.151Z,23.86
2022-08-10T15:04:02.364Z,23.90
2022-08-10T15:06:31.419Z,23.92
2022-08-10T15:09:05.941Z,23.97
2022-08-10T15:12:15.514Z,23.95
2022-08-10T15:14:43.285Z,23.98
2022-08-10T15:17:17.560Z,24.00
2022-08-10T15:20:04.427Z,24.02
2022-08-10T15:22:40.531Z,24.09
2022-08-10T15:25:17.639Z,24.21
2022-08-10T15:27:54.611Z,24.22
2022-08-10T15:30:30.976Z,24.12
2022-08-10T15:33:57.420Z,24.16
2022-08-10T15:36:29.872Z,24.16
2022-08-10T15:39:02.382Z,24.15
2022-08-10T15:41:59.428Z,24.14
2022-08-10T15:44:38.812Z,24.19
2022-08-10T15:47:11.970Z,24.20
2022-08-10T15:49:51.840Z,24.33
2022-08-10T15:52:39.467Z,24.32
2022-08-10T15:55:41.324Z,24.40
2022-08-10T15:58:10.331Z,24.54
2022-08-10T16:00:46.597Z,24.41
2022-08-10T16:03:23.555Z,24.39
2022-08-10T16:06:01.913Z,24.43
2022-08-10T16:08:56.193Z,24.48
2022-08-10T16:11:37.880Z,24.51
2022-08-10T16:14:17.611Z,24.64
2022-08-10T16:16:54.309Z,24.78
2022-08-10T16:19:38.272Z,24.80
2022-08-10T16:22:35.713Z,24.85
2022-08-10T16:25:03.269Z,24.73
2022-08-10T16:27:34.616Z,24.97
2022-08-10T16:30:07.079Z,24.95
2022-08-10T16:32:37.290Z,24.84
2022-08-10T16:35:09.450Z,24.79
2022-08-10T16:37:57.825Z,24.96
2022-08-10T16:40:30.138Z,25.11
2022-08-10T16:43:05.620Z,24.98
2022-08-10T16:45:36.069Z,24.89
2022-08-10T16:48:06.714Z,25.09
2022-08-10T16:50:41.878Z,25.07
2022-08-10T16:53:13.589Z,25.12
2022-08-10T16:55:50.649Z,25.23
2022-08-10T16:58:25.579Z,25.30
2022-08-10T17:00:55.073Z,25.28
2022-08-10T17:04:07.704Z,25.36
2022-08-10T17:06:22.411Z,25.39
2022-08-10T17:08:55.712Z,25.44
2022-08-10T17:11:30.850Z,25.53
2022-08-10T17:14:00.381Z,25.47
2022-08-10T17:16:38.379Z,25.56
2022-08-10T17:19:17.720Z,25.63
2022-08-10T17:21:53.830Z,25.64
2022-08-10T17:24:29.199Z,25.62
2022-08-10T17:27:01.421Z,25.66
2022-08-10T17:30:03.006Z,25.60
2022-08-10T17:32:44.137Z,25.61
2022-08-10T17:35:25.350Z,25.60
2022-08-10T17:38:11.072Z,25.60
2022-08-10T17:40:53.330Z,25.54
2022-08-10T17:43:46.305Z,25.55
2022-08-10T17:46:16.380Z,25.53
2022-08-10T17:48:46.189Z,25.55
2022-08-10T17:51:16.875Z,25.52
2022-08-10T17:53:49.930Z,25.48
2022-08-10T17:56:22.280Z,25.38
2022-08-10T17:58:53.986Z,25.29
2022-08-10T18:01:41.569Z,25.27
2022-08-10T18:04:19.459Z,25.39
2022-08-10T18:06:54.849Z,25.35
2022-08-10T18:09:30.609Z,25.31
2022-08-10T18:12:10.377Z,25.36
2022-08-10T18:14:48.809Z,25.28
2022-08-10T18:17:22.009Z,25.26
2022-08-10T18:19:55.340Z,25.15
2022-08-10T18:22:26.353Z,25.14
2022-08-10T18:24:57.531Z,25.17
2022-08-10T18:28:01.673Z,25.19
2022-08-10T18:30:19.229Z,25.16
2022-08-10T18:32:55.141Z,25.14
2022-08-10T18:35:35.117Z,25.14
2022-08-10T18:38:09.482Z,25.13
2022-08-10T18:40:41.781Z,25.10
2022-08-10T18:44:06.485Z,25.07
2022-08-10T18:46:03.269Z,25.00
2022-08-10T18:48:48.410Z,25.00
2022-08-10T18:51:24.419Z,24.95
2022-08-10T18:54:01.490Z,24.88
2022-08-10T18:56:53.642Z,24.84
2022-08-10T19:00:08.228Z,24.76
2022-08-10T19:02:59.449Z,24.73
2022-08-10T19:05:43.373Z,24.69
2022-08-10T19:08:36.430Z,24.67
2022-08-10T19:11:27.450Z,24.64
2022-08-10T19:14:04.443Z,24.60
2022-08-10T19:16:42.861Z,24.57
2022-08-10T19:19:33.570Z,24.52
2022-08-10T19:22:07.628Z,24.44
2022-08-10T19:24:47.679Z,24.40
2022-08-10T19:27:36.803Z,24.39
2022-08-10T19:30:12.958Z,24.36
2022-08-10T19:33:10.843Z,24.29
2022-08-10T19:36:04.019Z,24.22
2022-08-10T19:38:49.556Z,24.19
2022-08-10T19:41:32.096Z,24.00
2022-08-10T19:44:20.402Z,23.88
2022-08-10T19:46:59.662Z,23.85
2022-08-10T19:49:43.303Z,23.79
2022-08-10T19:52:24.333Z,23.72
2022-08-10T19:55:03.114Z,23.70
2022-08-10T19:57:38.947Z,23.63
2022-08-10T20:00:19.126Z,23.57
2022-08-10T20:03:08.119Z,23.57
2022-08-10T20:06:19.068Z,23.54
2022-08-10T20:08:56.897Z,23.40
2022-08-10T20:11:44.910Z,23.24
2022-08-10T20:14:22.855Z,23.21
2022-08-10T20:16:55.825Z,23.12
2022-08-10T20:19:53.596Z,23.04
2022-08-10T20:22:29.613Z,23.03
2022-08-10T20:25:03.230Z,22.93
2022-08-10T20:27:59.120Z,22.82
2022-08-10T20:30:30.340Z,22.78
2022-08-10T20:33:05.297Z,22.73
2022-08-10T20:35:47.781Z,22.68
2022-08-10T20:38:27.530Z,22.74
2022-08-10T20:41:09.911Z,22.68
2022-08-10T20:43:48.902Z,22.56
2022-08-10T20:46:27.854Z,22.52
2022-08-10T20:49:01.428Z,22.53
2022-08-10T20:51:57.421Z,22.46
2022-08-10T20:54:33.927Z,22.39
2022-08-10T20:57:56.584Z,22.34
2022-08-10T21:00:13.323Z,22.36
2022-08-10T21:03:07.051Z,22.27
2022-08-10T21:05:56.086Z,22.18
2022-08-10T21:08:37.178Z,22.27
2022-08-10T21:11:19.096Z,22.49
2022-08-10T21:13:59.557Z,22.60
2022-08-10T21:16:41.330Z,22.67
2022-08-10T21:19:40.071Z,22.71
2022-08-10T21:22:26.647Z,22.71
2022-08-10T21:25:02.582Z,22.80
2022-08-10T21:27:58.772Z,22.75
2022-08-10T21:30:39.036Z,22.72
2022-08-10T21:33:12.198Z,22.70
2022-08-10T21:35:44.498Z,22.72
2022-08-10T21:38:21.596Z,22.78
2022-08-10T21:41:56.593Z,22.84
2022-08-10T21:44:53.264Z,22.93
2022-08-10T21:48:07.091Z,22.98
2022-08-10T21:51:09.066Z,22.91
2022-08-10T21:54:07.299Z,22.94
2022-08-10T21:57:03.539Z,22.97
2022-08-10T21:59:56.505Z,22.97
2022-08-10T22:02:50.223Z,22.96
2022-08-10T22:05:42.405Z,22.95
2022-08-10T22:08:33.917Z,22.95
2022-08-10T22:11:23.106Z,22.85
2022-08-10T22:14:10.868Z,22.89
2022-08-10T22:17:59.678Z,22.88
2022-08-10T22:20:25.028Z,22.83
2022-08-10T22:23:47.266Z,22.81
2022-08-10T22:27:00.616Z,22.75
2022-08-10T22:29:56.704Z,22.66
2022-08-10T22:33:07.576Z,22.59
2022-08-10T22:36:27.296Z,22.60
2022-08-10T22:40:10.905Z,22.58
2022-08-10T22:43:09.796Z,22.46
2022-08-10T22:46:12.606Z,22.40
2022-08-10T22:49:03.706Z,22.37
2022-08-10T22:52:09.557Z,22.34
2022-08-10T22:55:12.835Z,22.32
2022-08-10T22:58:11.755Z,22.29
2022-08-10T23:01:10.985Z,22.25
2022-08-10T23:04:08.435Z,22.24
2022-08-10T23:07:07.528Z,22.21
2022-08-10T23:09:48.526Z,22.17
2022-08-10T23:12:34.517Z,22.16
2022-08-10T23:15:27.005Z,22.12
2022-08-10T23:18:17.515Z,22.11
2022-08-10T23:20:50.266Z,22.08
2022-08-10T23:23:24.164Z,22.07
2022-08-10T23:25:57.483Z,22.04
2022-08-10T23:28:38.885Z,22.04
2022-08-10T23:31:51.897Z,22.01
2022-08-10T23:34:10.045Z,21.99
2022-08-10T23:36:42.846Z,21.96
2022-08-10T23:39:26.017Z,21.95
2022-08-10T23:42:04.718Z,21.90
2022-08-10T23:44:43.564Z,21.88
2022-08-10T23:47:15.334Z,21.89
2022-08-10T23:49:45.846Z,21.86
2022-08-10T23:52:19.975Z,21.85
2022-08-10T23:54:51.534Z,21.79
2022-08-10T23:57:23.252Z,21.79
2022-08-10T23:59:59.048Z,21.78
